sensor_id;sensor_type;location;lat;lon;timestamp;temperature;humidity
12769;DHT22;6448;48.916;8.990;2023-01-31T00:00:45;8.80;58.10
12769;DHT22;6448;48.916;8.990;2023-01-31T00:01:45;8.70;58.00
12769;DHT22;6448;48.916;8.990;2023-01-31T00:02:47;8.80;58.00
12769;DHT22;6448;48.916;8.990;2023-01-31T00:03:52;8.80;58.00
12769;DHT22;6448;48.916;8.990;2023-01-31T00:04:54;8.80;58.00
12769;DHT22;6448;48.916;8.990;2023-01-31T00:05:56;8.80;57.90
12769;DHT22;6448;48.916;8.990;2023-01-31T00:06:58;8.80;57.80
12769;DHT22;6448;48.916;8.990;2023-01-31T00:07:59;8.80;57.80
12769;DHT22;6448;48.916;8.990;2023-01-31T00:09:03;8.80;57.80
12769;DHT22;6448;48.916;8.990;2023-01-31T00:10:04;8.80;57.80
12769;DHT22;6448;48.916;8.990;2023-01-31T00:11:09;8.80;57.70
12769;DHT22;6448;48.916;8.990;2023-01-31T00:12:10;8.80;58.30
12769;DHT22;6448;48.916;8.990;2023-01-31T00:13:12;8.80;57.60
12769;DHT22;6448;48.916;8.990;2023-01-31T00:14:17;8.80;57.60
12769;DHT22;6448;48.916;8.990;2023-01-31T00:15:19;8.70;57.60
12769;DHT22;6448;48.916;8.990;2023-01-31T00:16:21;8.90;57.60
12769;DHT22;6448;48.916;8.990;2023-01-31T00:17:23;8.80;57.60
12769;DHT22;6448;48.916;8.990;2023-01-31T00:18:24;8.80;57.40
12769;DHT22;6448;48.916;8.990;2023-01-31T00:19:26;8.80;57.50
12769;DHT22;6448;48.916;8.990;2023-01-31T00:20:28;8.80;57.40
12769;DHT22;6448;48.916;8.990;2023-01-31T00:21:30;8.80;57.40
12769;DHT22;6448;48.916;8.990;2023-01-31T00:22:32;8.80;57.40
12769;DHT22;6448;48.916;8.990;2023-01-31T00:23:33;8.70;57.30
12769;DHT22;6448;48.916;8.990;2023-01-31T00:24:35;8.70;57.30
12769;DHT22;6448;48.916;8.990;2023-01-31T00:25:36;8.70;57.30
12769;DHT22;6448;48.916;8.990;2023-01-31T00:26:38;8.70;57.30
12769;DHT22;6448;48.916;8.990;2023-01-31T00:27:38;8.70;57.20
12769;DHT22;6448;48.916;8.990;2023-01-31T00:28:41;8.70;57.20
12769;DHT22;6448;48.916;8.990;2023-01-31T00:29:42;8.70;57.20
12769;DHT22;6448;48.916;8.990;2023-01-31T00:30:44;8.70;57.20
12769;DHT22;6448;48.916;8.990;2023-01-31T00:31:45;8.70;57.10
12769;DHT22;6448;48.916;8.990;2023-01-31T00:32:47;8.70;57.10
12769;DHT22;6448;48.916;8.990;2023-01-31T00:33:49;8.70;57.10
12769;DHT22;6448;48.916;8.990;2023-01-31T00:34:51;9.00;57.20
12769;DHT22;6448;48.916;8.990;2023-01-31T00:35:52;8.70;57.00
12769;DHT22;6448;48.916;8.990;2023-01-31T00:36:55;8.80;57.00
12769;DHT22;6448;48.916;8.990;2023-01-31T00:37:56;8.70;57.00
12769;DHT22;6448;48.916;8.990;2023-01-31T00:39:01;8.70;57.00
12769;DHT22;6448;48.916;8.990;2023-01-31T00:40:03;8.70;57.10
12769;DHT22;6448;48.916;8.990;2023-01-31T00:41:05;8.70;57.10
12769;DHT22;6448;48.916;8.990;2023-01-31T00:42:33;8.70;57.00
12769;DHT22;6448;48.916;8.990;2023-01-31T00:43:48;8.70;56.90
12769;DHT22;6448;48.916;8.990;2023-01-31T00:44:49;8.70;56.90
12769;DHT22;6448;48.916;8.990;2023-01-31T00:45:51;8.80;56.90
12769;DHT22;6448;48.916;8.990;2023-01-31T00:46:52;8.70;56.80
12769;DHT22;6448;48.916;8.990;2023-01-31T00:47:54;8.70;56.80
12769;DHT22;6448;48.916;8.990;2023-01-31T00:48:55;8.70;56.80
12769;DHT22;6448;48.916;8.990;2023-01-31T00:49:58;8.70;56.90
12769;DHT22;6448;48.916;8.990;2023-01-31T00:51:01;8.70;56.80
12769;DHT22;6448;48.916;8.990;2023-01-31T00:52:05;8.70;56.80
12769;DHT22;6448;48.916;8.990;2023-01-31T00:53:06;8.80;56.80
12769;DHT22;6448;48.916;8.990;2023-01-31T00:54:09;8.70;56.70
12769;DHT22;6448;48.916;8.990;2023-01-31T00:55:10;8.80;56.70
12769;DHT22;6448;48.916;8.990;2023-01-31T00:56:13;8.70;56.70
12769;DHT22;6448;48.916;8.990;2023-01-31T00:57:15;8.80;56.70
12769;DHT22;6448;48.916;8.990;2023-01-31T00:58:17;8.50;56.50
12769;DHT22;6448;48.916;8.990;2023-01-31T00:59:19;8.90;56.80
12769;DHT22;6448;48.916;8.990;2023-01-31T01:00:21;8.70;56.60
12769;DHT22;6448;48.916;8.990;2023-01-31T01:01:23;8.70;56.70
12769;DHT22;6448;48.916;8.990;2023-01-31T01:02:26;8.70;56.70
12769;DHT22;6448;48.916;8.990;2023-01-31T01:03:27;8.80;56.70
12769;DHT22;6448;48.916;8.990;2023-01-31T01:04:29;8.70;56.70
12769;DHT22;6448;48.916;8.990;2023-01-31T01:05:30;8.70;56.70
12769;DHT22;6448;48.916;8.990;2023-01-31T01:06:32;8.70;56.70
12769;DHT22;6448;48.916;8.990;2023-01-31T01:07:34;8.80;56.70
12769;DHT22;6448;48.916;8.990;2023-01-31T01:08:38;8.70;56.70
12769;DHT22;6448;48.916;8.990;2023-01-31T01:09:39;8.70;56.70
12769;DHT22;6448;48.916;8.990;2023-01-31T01:10:41;8.70;56.60
12769;DHT22;6448;48.916;8.990;2023-01-31T01:11:42;8.80;56.70
12769;DHT22;6448;48.916;8.990;2023-01-31T01:12:44;8.80;56.70
12769;DHT22;6448;48.916;8.990;2023-01-31T01:13:48;8.80;56.70
12769;DHT22;6448;48.916;8.990;2023-01-31T01:14:50;8.80;56.70
12769;DHT22;6448;48.916;8.990;2023-01-31T01:15:51;9.00;56.70
12769;DHT22;6448;48.916;8.990;2023-01-31T01:16:53;8.80;56.60
12769;DHT22;6448;48.916;8.990;2023-01-31T01:17:57;8.80;56.60
12769;DHT22;6448;48.916;8.990;2023-01-31T01:19:00;8.80;56.60
12769;DHT22;6448;48.916;8.990;2023-01-31T01:20:01;8.80;56.60
12769;DHT22;6448;48.916;8.990;2023-01-31T01:21:07;8.80;56.60
12769;DHT22;6448;48.916;8.990;2023-01-31T01:22:09;8.80;56.50
12769;DHT22;6448;48.916;8.990;2023-01-31T01:23:17;8.80;56.50
12769;DHT22;6448;48.916;8.990;2023-01-31T01:24:18;8.80;56.50
12769;DHT22;6448;48.916;8.990;2023-01-31T01:25:21;8.80;56.50
12769;DHT22;6448;48.916;8.990;2023-01-31T01:26:24;8.80;56.50
12769;DHT22;6448;48.916;8.990;2023-01-31T01:27:26;8.90;56.60
12769;DHT22;6448;48.916;8.990;2023-01-31T01:28:27;8.90;56.60
12769;DHT22;6448;48.916;8.990;2023-01-31T01:29:30;8.70;56.50
12769;DHT22;6448;48.916;8.990;2023-01-31T01:30:31;8.80;56.50
12769;DHT22;6448;48.916;8.990;2023-01-31T01:31:36;8.80;56.50
12769;DHT22;6448;48.916;8.990;2023-01-31T01:32:37;8.90;56.60
12769;DHT22;6448;48.916;8.990;2023-01-31T01:33:39;8.90;56.60
12769;DHT22;6448;48.916;8.990;2023-01-31T01:34:41;8.90;56.60
12769;DHT22;6448;48.916;8.990;2023-01-31T01:35:43;8.80;56.60
12769;DHT22;6448;48.916;8.990;2023-01-31T01:36:44;8.90;56.60
12769;DHT22;6448;48.916;8.990;2023-01-31T01:37:45;8.90;56.60
12769;DHT22;6448;48.916;8.990;2023-01-31T01:38:48;8.90;56.60
12769;DHT22;6448;48.916;8.990;2023-01-31T01:39:51;8.90;56.60
12769;DHT22;6448;48.916;8.990;2023-01-31T01:40:53;9.00;56.70
12769;DHT22;6448;48.916;8.990;2023-01-31T01:41:55;8.90;56.60
12769;DHT22;6448;48.916;8.990;2023-01-31T01:42:59;8.90;56.60
12769;DHT22;6448;48.916;8.990;2023-01-31T01:44:01;8.90;56.60
12769;DHT22;6448;48.916;8.990;2023-01-31T01:45:11;8.90;56.60
12769;DHT22;6448;48.916;8.990;2023-01-31T01:46:19;8.90;56.60
12769;DHT22;6448;48.916;8.990;2023-01-31T01:47:33;8.90;56.70
12769;DHT22;6448;48.916;8.990;2023-01-31T01:48:35;9.00;56.80
12769;DHT22;6448;48.916;8.990;2023-01-31T01:49:37;8.90;56.70
12769;DHT22;6448;48.916;8.990;2023-01-31T01:50:41;8.90;56.70
12769;DHT22;6448;48.916;8.990;2023-01-31T01:51:45;8.90;56.80
12769;DHT22;6448;48.916;8.990;2023-01-31T01:52:50;9.00;56.90
12769;DHT22;6448;48.916;8.990;2023-01-31T01:53:57;8.90;56.90
12769;DHT22;6448;48.916;8.990;2023-01-31T01:55:05;8.90;56.90
12769;DHT22;6448;48.916;8.990;2023-01-31T01:56:09;8.80;56.90
12769;DHT22;6448;48.916;8.990;2023-01-31T01:57:13;8.80;56.90
12769;DHT22;6448;48.916;8.990;2023-01-31T01:58:18;8.80;57.00
12769;DHT22;6448;48.916;8.990;2023-01-31T01:59:24;8.80;57.00
12769;DHT22;6448;48.916;8.990;2023-01-31T02:00:30;8.80;57.10
12769;DHT22;6448;48.916;8.990;2023-01-31T02:01:36;8.80;57.10
12769;DHT22;6448;48.916;8.990;2023-01-31T02:02:43;8.80;57.20
12769;DHT22;6448;48.916;8.990;2023-01-31T02:03:47;8.80;57.30
12769;DHT22;6448;48.916;8.990;2023-01-31T02:04:49;8.80;57.30
12769;DHT22;6448;48.916;8.990;2023-01-31T02:05:55;8.80;57.30
12769;DHT22;6448;48.916;8.990;2023-01-31T02:06:58;8.70;57.30
12769;DHT22;6448;48.916;8.990;2023-01-31T02:08:02;8.70;57.30
12769;DHT22;6448;48.916;8.990;2023-01-31T02:09:08;8.70;57.40
12769;DHT22;6448;48.916;8.990;2023-01-31T02:10:15;8.70;57.40
12769;DHT22;6448;48.916;8.990;2023-01-31T02:11:21;8.80;57.60
12769;DHT22;6448;48.916;8.990;2023-01-31T02:12:23;8.70;57.50
12769;DHT22;6448;48.916;8.990;2023-01-31T02:13:29;8.70;57.60
12769;DHT22;6448;48.916;8.990;2023-01-31T02:14:31;8.70;57.60
12769;DHT22;6448;48.916;8.990;2023-01-31T02:15:33;8.70;57.60
12769;DHT22;6448;48.916;8.990;2023-01-31T02:16:35;8.70;57.60
12769;DHT22;6448;48.916;8.990;2023-01-31T02:17:38;8.60;57.60
12769;DHT22;6448;48.916;8.990;2023-01-31T02:18:42;8.60;57.60
12769;DHT22;6448;48.916;8.990;2023-01-31T02:19:52;8.60;57.70
12769;DHT22;6448;48.916;8.990;2023-01-31T02:22:41;8.60;57.80
12769;DHT22;6448;48.916;8.990;2023-01-31T02:24:44;8.60;57.90
12769;DHT22;6448;48.916;8.990;2023-01-31T02:26:24;8.60;57.90
12769;DHT22;6448;48.916;8.990;2023-01-31T02:27:46;8.60;58.00
12769;DHT22;6448;48.916;8.990;2023-01-31T02:29:10;8.60;58.00
12769;DHT22;6448;48.916;8.990;2023-01-31T02:30:30;8.50;58.00
12769;DHT22;6448;48.916;8.990;2023-01-31T02:31:57;8.60;58.10
12769;DHT22;6448;48.916;8.990;2023-01-31T02:33:08;8.50;58.10
12769;DHT22;6448;48.916;8.990;2023-01-31T02:34:17;8.60;58.20
12769;DHT22;6448;48.916;8.990;2023-01-31T02:35:30;8.70;58.20
12769;DHT22;6448;48.916;8.990;2023-01-31T02:36:39;8.50;58.20
12769;DHT22;6448;48.916;8.990;2023-01-31T02:37:52;8.50;58.20
12769;DHT22;6448;48.916;8.990;2023-01-31T02:39:04;8.50;58.20
12769;DHT22;6448;48.916;8.990;2023-01-31T02:40:13;8.40;58.20
12769;DHT22;6448;48.916;8.990;2023-01-31T02:41:19;8.40;58.30
12769;DHT22;6448;48.916;8.990;2023-01-31T02:42:31;8.40;58.30
12769;DHT22;6448;48.916;8.990;2023-01-31T02:43:42;8.40;58.30
12769;DHT22;6448;48.916;8.990;2023-01-31T02:45:04;8.40;58.40
12769;DHT22;6448;48.916;8.990;2023-01-31T02:46:12;8.70;58.60
12769;DHT22;6448;48.916;8.990;2023-01-31T02:47:23;8.40;58.50
12769;DHT22;6448;48.916;8.990;2023-01-31T02:48:38;8.40;58.50
12769;DHT22;6448;48.916;8.990;2023-01-31T02:49:48;8.70;58.60
12769;DHT22;6448;48.916;8.990;2023-01-31T02:51:02;8.40;58.50
12769;DHT22;6448;48.916;8.990;2023-01-31T02:52:15;8.40;58.50
12769;DHT22;6448;48.916;8.990;2023-01-31T02:53:20;8.40;58.50
12769;DHT22;6448;48.916;8.990;2023-01-31T02:54:26;8.40;58.50
12769;DHT22;6448;48.916;8.990;2023-01-31T02:55:52;8.40;58.50
12769;DHT22;6448;48.916;8.990;2023-01-31T02:57:13;8.40;58.60
12769;DHT22;6448;48.916;8.990;2023-01-31T02:58:16;8.40;58.60
12769;DHT22;6448;48.916;8.990;2023-01-31T02:59:20;8.40;58.60
12769;DHT22;6448;48.916;8.990;2023-01-31T03:00:26;8.60;58.70
12769;DHT22;6448;48.916;8.990;2023-01-31T03:01:31;8.50;58.60
12769;DHT22;6448;48.916;8.990;2023-01-31T03:02:32;8.40;58.50
12769;DHT22;6448;48.916;8.990;2023-01-31T03:03:37;8.40;58.50
12769;DHT22;6448;48.916;8.990;2023-01-31T03:04:39;8.50;58.60
12769;DHT22;6448;48.916;8.990;2023-01-31T03:05:42;8.40;58.50
12769;DHT22;6448;48.916;8.990;2023-01-31T03:06:54;8.40;58.60
12769;DHT22;6448;48.916;8.990;2023-01-31T03:08:00;8.40;58.60
12769;DHT22;6448;48.916;8.990;2023-01-31T03:09:07;8.40;58.70
12769;DHT22;6448;48.916;8.990;2023-01-31T03:10:18;8.40;58.60
12769;DHT22;6448;48.916;8.990;2023-01-31T03:11:26;8.50;59.30
12769;DHT22;6448;48.916;8.990;2023-01-31T03:12:39;8.40;58.60
12769;DHT22;6448;48.916;8.990;2023-01-31T03:13:48;8.40;58.70
12769;DHT22;6448;48.916;8.990;2023-01-31T03:14:58;8.60;58.80
12769;DHT22;6448;48.916;8.990;2023-01-31T03:16:09;8.40;58.70
12769;DHT22;6448;48.916;8.990;2023-01-31T03:17:41;8.40;58.70
12769;DHT22;6448;48.916;8.990;2023-01-31T03:18:52;8.40;58.70
12769;DHT22;6448;48.916;8.990;2023-01-31T03:20:07;8.40;58.70
12769;DHT22;6448;48.916;8.990;2023-01-31T03:21:13;8.40;58.80
12769;DHT22;6448;48.916;8.990;2023-01-31T03:22:20;8.40;58.80
12769;DHT22;6448;48.916;8.990;2023-01-31T03:23:24;8.40;58.80
12769;DHT22;6448;48.916;8.990;2023-01-31T03:24:30;8.40;58.80
12769;DHT22;6448;48.916;8.990;2023-01-31T03:25:34;8.40;58.90
12769;DHT22;6448;48.916;8.990;2023-01-31T03:26:40;8.40;58.90
12769;DHT22;6448;48.916;8.990;2023-01-31T03:27:44;8.40;58.80
12769;DHT22;6448;48.916;8.990;2023-01-31T03:28:52;8.50;58.90
12769;DHT22;6448;48.916;8.990;2023-01-31T03:30:02;8.40;58.90
12769;DHT22;6448;48.916;8.990;2023-01-31T03:31:09;8.30;58.80
12769;DHT22;6448;48.916;8.990;2023-01-31T03:32:19;8.40;58.80
12769;DHT22;6448;48.916;8.990;2023-01-31T03:33:25;8.40;58.80
12769;DHT22;6448;48.916;8.990;2023-01-31T03:34:31;8.40;58.90
12769;DHT22;6448;48.916;8.990;2023-01-31T03:35:34;8.40;58.90
12769;DHT22;6448;48.916;8.990;2023-01-31T03:36:42;8.40;58.90
12769;DHT22;6448;48.916;8.990;2023-01-31T03:38:11;8.40;58.90
12769;DHT22;6448;48.916;8.990;2023-01-31T03:39:20;8.40;58.90
12769;DHT22;6448;48.916;8.990;2023-01-31T03:40:26;8.40;58.80
12769;DHT22;6448;48.916;8.990;2023-01-31T03:41:37;8.40;58.80
12769;DHT22;6448;48.916;8.990;2023-01-31T03:42:49;8.60;58.90
12769;DHT22;6448;48.916;8.990;2023-01-31T03:44:00;8.40;58.80
12769;DHT22;6448;48.916;8.990;2023-01-31T03:45:05;8.50;58.80
12769;DHT22;6448;48.916;8.990;2023-01-31T03:46:14;8.40;58.80
12769;DHT22;6448;48.916;8.990;2023-01-31T03:47:20;8.60;58.80
12769;DHT22;6448;48.916;8.990;2023-01-31T03:48:30;8.50;58.80
12769;DHT22;6448;48.916;8.990;2023-01-31T03:49:33;8.50;58.70
12769;DHT22;6448;48.916;8.990;2023-01-31T03:50:40;8.50;58.70
12769;DHT22;6448;48.916;8.990;2023-01-31T03:51:45;8.50;58.70
12769;DHT22;6448;48.916;8.990;2023-01-31T03:52:50;8.50;58.70
12769;DHT22;6448;48.916;8.990;2023-01-31T03:53:53;8.40;59.20
12769;DHT22;6448;48.916;8.990;2023-01-31T03:55:02;8.50;58.60
12769;DHT22;6448;48.916;8.990;2023-01-31T03:56:09;8.50;58.60
12769;DHT22;6448;48.916;8.990;2023-01-31T03:57:16;8.50;58.60
12769;DHT22;6448;48.916;8.990;2023-01-31T03:58:20;8.50;58.50
12769;DHT22;6448;48.916;8.990;2023-01-31T03:59:26;8.50;58.60
12769;DHT22;6448;48.916;8.990;2023-01-31T04:00:28;8.60;58.60
12769;DHT22;6448;48.916;8.990;2023-01-31T04:01:33;8.50;58.50
12769;DHT22;6448;48.916;8.990;2023-01-31T04:02:36;8.40;58.50
12769;DHT22;6448;48.916;8.990;2023-01-31T04:03:43;8.70;58.70
12769;DHT22;6448;48.916;8.990;2023-01-31T04:04:49;8.60;58.60
12769;DHT22;6448;48.916;8.990;2023-01-31T04:05:53;8.60;58.60
12769;DHT22;6448;48.916;8.990;2023-01-31T04:06:55;8.40;58.50
12769;DHT22;6448;48.916;8.990;2023-01-31T04:07:57;8.40;58.40
12769;DHT22;6448;48.916;8.990;2023-01-31T04:08:59;8.40;58.50
12769;DHT22;6448;48.916;8.990;2023-01-31T04:10:02;8.40;58.50
12769;DHT22;6448;48.916;8.990;2023-01-31T04:11:04;8.50;58.50
12769;DHT22;6448;48.916;8.990;2023-01-31T04:12:06;8.40;58.50
12769;DHT22;6448;48.916;8.990;2023-01-31T04:13:07;8.40;58.50
12769;DHT22;6448;48.916;8.990;2023-01-31T04:14:09;8.40;58.50
12769;DHT22;6448;48.916;8.990;2023-01-31T04:15:10;8.70;58.70
12769;DHT22;6448;48.916;8.990;2023-01-31T04:16:12;8.40;58.50
12769;DHT22;6448;48.916;8.990;2023-01-31T04:17:13;8.40;58.50
12769;DHT22;6448;48.916;8.990;2023-01-31T04:18:15;8.40;58.50
12769;DHT22;6448;48.916;8.990;2023-01-31T04:19:16;8.40;58.50
12769;DHT22;6448;48.916;8.990;2023-01-31T04:20:19;8.40;58.50
12769;DHT22;6448;48.916;8.990;2023-01-31T04:21:20;8.40;58.50
12769;DHT22;6448;48.916;8.990;2023-01-31T04:22:22;8.40;58.50
12769;DHT22;6448;48.916;8.990;2023-01-31T04:23:22;8.40;58.50
12769;DHT22;6448;48.916;8.990;2023-01-31T04:24:26;8.40;59.20
12769;DHT22;6448;48.916;8.990;2023-01-31T04:25:27;8.40;58.60
12769;DHT22;6448;48.916;8.990;2023-01-31T04:26:28;8.40;58.50
12769;DHT22;6448;48.916;8.990;2023-01-31T04:27:29;8.40;58.60
12769;DHT22;6448;48.916;8.990;2023-01-31T04:28:31;8.40;58.60
12769;DHT22;6448;48.916;8.990;2023-01-31T04:29:32;8.40;58.60
12769;DHT22;6448;48.916;8.990;2023-01-31T04:30:33;8.40;58.60
12769;DHT22;6448;48.916;8.990;2023-01-31T04:31:34;8.40;58.60
12769;DHT22;6448;48.916;8.990;2023-01-31T04:32:36;8.40;58.60
12769;DHT22;6448;48.916;8.990;2023-01-31T04:33:37;8.40;58.60
12769;DHT22;6448;48.916;8.990;2023-01-31T04:34:39;8.40;58.60
12769;DHT22;6448;48.916;8.990;2023-01-31T04:35:42;8.40;58.70
12769;DHT22;6448;48.916;8.990;2023-01-31T04:36:42;8.40;58.70
12769;DHT22;6448;48.916;8.990;2023-01-31T04:37:44;8.40;58.70
12769;DHT22;6448;48.916;8.990;2023-01-31T04:38:45;8.50;58.70
12769;DHT22;6448;48.916;8.990;2023-01-31T04:39:47;8.60;58.80
12769;DHT22;6448;48.916;8.990;2023-01-31T04:40:48;8.40;58.80
12769;DHT22;6448;48.916;8.990;2023-01-31T04:41:49;8.40;58.80
12769;DHT22;6448;48.916;8.990;2023-01-31T04:42:50;8.40;58.80
12769;DHT22;6448;48.916;8.990;2023-01-31T04:43:52;8.40;58.80
12769;DHT22;6448;48.916;8.990;2023-01-31T04:44:53;8.40;58.80
12769;DHT22;6448;48.916;8.990;2023-01-31T04:45:54;8.40;58.80
12769;DHT22;6448;48.916;8.990;2023-01-31T04:46:55;8.40;58.90
12769;DHT22;6448;48.916;8.990;2023-01-31T04:47:57;8.40;58.90
12769;DHT22;6448;48.916;8.990;2023-01-31T04:48:58;8.50;58.90
12769;DHT22;6448;48.916;8.990;2023-01-31T04:50:00;8.40;58.90
12769;DHT22;6448;48.916;8.990;2023-01-31T04:51:03;8.40;58.90
12769;DHT22;6448;48.916;8.990;2023-01-31T04:52:04;8.40;58.90
12769;DHT22;6448;48.916;8.990;2023-01-31T04:53:05;8.40;58.90
12769;DHT22;6448;48.916;8.990;2023-01-31T04:54:08;8.50;58.90
12769;DHT22;6448;48.916;8.990;2023-01-31T04:55:09;8.40;58.90
12769;DHT22;6448;48.916;8.990;2023-01-31T04:56:11;8.40;58.80
12769;DHT22;6448;48.916;8.990;2023-01-31T04:57:12;8.40;58.80
12769;DHT22;6448;48.916;8.990;2023-01-31T04:58:14;8.40;58.90
12769;DHT22;6448;48.916;8.990;2023-01-31T04:59:15;8.50;58.80
12769;DHT22;6448;48.916;8.990;2023-01-31T05:00:18;8.40;58.80
12769;DHT22;6448;48.916;8.990;2023-01-31T05:01:19;8.40;58.80
12769;DHT22;6448;48.916;8.990;2023-01-31T05:02:20;8.40;58.80
12769;DHT22;6448;48.916;8.990;2023-01-31T05:03:22;8.70;59.00
12769;DHT22;6448;48.916;8.990;2023-01-31T05:04:24;8.30;58.80
12769;DHT22;6448;48.916;8.990;2023-01-31T05:05:25;8.40;58.90
12769;DHT22;6448;48.916;8.990;2023-01-31T05:06:29;8.40;58.90
12769;DHT22;6448;48.916;8.990;2023-01-31T05:07:29;8.40;58.90
12769;DHT22;6448;48.916;8.990;2023-01-31T05:08:31;8.40;58.90
12769;DHT22;6448;48.916;8.990;2023-01-31T05:09:32;8.40;58.90
12769;DHT22;6448;48.916;8.990;2023-01-31T05:10:34;8.40;58.90
12769;DHT22;6448;48.916;8.990;2023-01-31T05:11:35;8.40;59.00
12769;DHT22;6448;48.916;8.990;2023-01-31T05:12:37;8.40;59.00
12769;DHT22;6448;48.916;8.990;2023-01-31T05:13:38;8.40;58.90
12769;DHT22;6448;48.916;8.990;2023-01-31T05:14:40;8.50;58.90
12769;DHT22;6448;48.916;8.990;2023-01-31T05:15:41;8.50;59.00
12769;DHT22;6448;48.916;8.990;2023-01-31T05:16:43;8.30;58.90
12769;DHT22;6448;48.916;8.990;2023-01-31T05:17:51;8.40;58.90
12769;DHT22;6448;48.916;8.990;2023-01-31T05:18:53;8.40;58.90
12769;DHT22;6448;48.916;8.990;2023-01-31T05:19:54;8.40;58.80
12769;DHT22;6448;48.916;8.990;2023-01-31T05:20:56;8.40;58.90
12769;DHT22;6448;48.916;8.990;2023-01-31T05:21:58;8.40;58.80
12769;DHT22;6448;48.916;8.990;2023-01-31T05:23:00;8.40;58.80
12769;DHT22;6448;48.916;8.990;2023-01-31T05:24:01;8.40;58.70
12769;DHT22;6448;48.916;8.990;2023-01-31T05:25:04;8.40;58.70
12769;DHT22;6448;48.916;8.990;2023-01-31T05:26:04;8.40;58.80
12769;DHT22;6448;48.916;8.990;2023-01-31T05:27:08;8.30;58.70
12769;DHT22;6448;48.916;8.990;2023-01-31T05:28:10;8.40;58.80
12769;DHT22;6448;48.916;8.990;2023-01-31T05:29:12;8.60;58.80
12769;DHT22;6448;48.916;8.990;2023-01-31T05:30:13;8.40;58.70
12769;DHT22;6448;48.916;8.990;2023-01-31T05:31:15;8.30;58.70
12769;DHT22;6448;48.916;8.990;2023-01-31T05:32:15;8.40;58.70
12769;DHT22;6448;48.916;8.990;2023-01-31T05:33:19;8.30;58.70
12769;DHT22;6448;48.916;8.990;2023-01-31T05:34:20;8.40;58.80
12769;DHT22;6448;48.916;8.990;2023-01-31T05:35:23;8.40;59.40
12769;DHT22;6448;48.916;8.990;2023-01-31T05:36:25;8.40;58.70
12769;DHT22;6448;48.916;8.990;2023-01-31T05:37:27;8.40;58.60
12769;DHT22;6448;48.916;8.990;2023-01-31T05:38:29;8.40;58.60
12769;DHT22;6448;48.916;8.990;2023-01-31T05:39:30;8.40;58.60
12769;DHT22;6448;48.916;8.990;2023-01-31T05:40:32;8.40;58.50
12769;DHT22;6448;48.916;8.990;2023-01-31T05:41:33;8.40;58.40
12769;DHT22;6448;48.916;8.990;2023-01-31T05:42:35;8.40;58.40
12769;DHT22;6448;48.916;8.990;2023-01-31T05:43:35;8.40;58.40
12769;DHT22;6448;48.916;8.990;2023-01-31T05:44:37;8.40;58.40
12769;DHT22;6448;48.916;8.990;2023-01-31T05:45:38;8.40;58.40
12769;DHT22;6448;48.916;8.990;2023-01-31T05:46:40;8.40;58.40
12769;DHT22;6448;48.916;8.990;2023-01-31T05:47:40;8.50;58.40
12769;DHT22;6448;48.916;8.990;2023-01-31T05:48:46;8.40;58.30
12769;DHT22;6448;48.916;8.990;2023-01-31T05:49:47;8.40;58.20
12769;DHT22;6448;48.916;8.990;2023-01-31T05:50:48;8.40;58.20
12769;DHT22;6448;48.916;8.990;2023-01-31T05:51:50;8.50;58.20
12769;DHT22;6448;48.916;8.990;2023-01-31T05:52:54;8.40;58.10
12769;DHT22;6448;48.916;8.990;2023-01-31T05:53:56;8.40;58.10
12769;DHT22;6448;48.916;8.990;2023-01-31T05:54:57;8.40;58.60
12769;DHT22;6448;48.916;8.990;2023-01-31T05:55:58;8.40;58.00
12769;DHT22;6448;48.916;8.990;2023-01-31T05:56:59;8.40;58.00
12769;DHT22;6448;48.916;8.990;2023-01-31T05:58:01;8.40;58.00
12769;DHT22;6448;48.916;8.990;2023-01-31T05:59:02;8.50;58.00
12769;DHT22;6448;48.916;8.990;2023-01-31T06:00:04;8.40;57.90
12769;DHT22;6448;48.916;8.990;2023-01-31T06:01:12;8.40;57.80
12769;DHT22;6448;48.916;8.990;2023-01-31T06:02:14;8.40;57.80
12769;DHT22;6448;48.916;8.990;2023-01-31T06:03:14;8.40;57.80
12769;DHT22;6448;48.916;8.990;2023-01-31T06:04:16;8.40;57.70
12769;DHT22;6448;48.916;8.990;2023-01-31T06:05:17;8.40;57.70
12769;DHT22;6448;48.916;8.990;2023-01-31T06:06:19;8.40;57.70
12769;DHT22;6448;48.916;8.990;2023-01-31T06:07:20;8.50;57.80
12769;DHT22;6448;48.916;8.990;2023-01-31T06:08:24;8.40;57.70
12769;DHT22;6448;48.916;8.990;2023-01-31T06:09:25;8.40;57.60
12769;DHT22;6448;48.916;8.990;2023-01-31T06:10:27;8.40;57.70
12769;DHT22;6448;48.916;8.990;2023-01-31T06:11:28;8.50;57.70
12769;DHT22;6448;48.916;8.990;2023-01-31T06:12:30;8.40;57.60
12769;DHT22;6448;48.916;8.990;2023-01-31T06:13:31;8.50;57.60
12769;DHT22;6448;48.916;8.990;2023-01-31T06:14:33;8.50;57.60
12769;DHT22;6448;48.916;8.990;2023-01-31T06:15:34;8.50;57.60
12769;DHT22;6448;48.916;8.990;2023-01-31T06:16:37;8.50;57.60
12769;DHT22;6448;48.916;8.990;2023-01-31T06:17:38;8.50;57.50
12769;DHT22;6448;48.916;8.990;2023-01-31T06:18:39;8.50;57.50
12769;DHT22;6448;48.916;8.990;2023-01-31T06:19:40;8.50;57.30
12769;DHT22;6448;48.916;8.990;2023-01-31T06:20:42;8.50;57.40
12769;DHT22;6448;48.916;8.990;2023-01-31T06:21:43;8.50;57.40
12769;DHT22;6448;48.916;8.990;2023-01-31T06:22:45;8.50;57.40
12769;DHT22;6448;48.916;8.990;2023-01-31T06:23:47;8.50;57.30
12769;DHT22;6448;48.916;8.990;2023-01-31T06:24:49;8.50;57.30
12769;DHT22;6448;48.916;8.990;2023-01-31T06:25:51;8.50;57.20
12769;DHT22;6448;48.916;8.990;2023-01-31T06:26:53;8.50;57.20
12769;DHT22;6448;48.916;8.990;2023-01-31T06:27:54;8.50;57.20
12769;DHT22;6448;48.916;8.990;2023-01-31T06:28:56;8.50;57.20
12769;DHT22;6448;48.916;8.990;2023-01-31T06:29:58;8.50;57.10
12769;DHT22;6448;48.916;8.990;2023-01-31T06:31:05;8.50;57.10
12769;DHT22;6448;48.916;8.990;2023-01-31T06:32:06;8.60;57.20
12769;DHT22;6448;48.916;8.990;2023-01-31T06:33:08;8.50;57.00
12769;DHT22;6448;48.916;8.990;2023-01-31T06:34:09;8.50;57.00
12769;DHT22;6448;48.916;8.990;2023-01-31T06:35:10;8.50;56.90
12769;DHT22;6448;48.916;8.990;2023-01-31T06:36:12;8.50;56.90
12769;DHT22;6448;48.916;8.990;2023-01-31T06:37:13;8.50;56.80
12769;DHT22;6448;48.916;8.990;2023-01-31T06:38:14;8.50;56.80
12769;DHT22;6448;48.916;8.990;2023-01-31T06:39:17;8.70;56.80
12769;DHT22;6448;48.916;8.990;2023-01-31T06:40:18;8.50;56.70
12769;DHT22;6448;48.916;8.990;2023-01-31T06:41:20;8.40;56.70
12769;DHT22;6448;48.916;8.990;2023-01-31T06:42:21;8.50;56.70
12769;DHT22;6448;48.916;8.990;2023-01-31T06:43:23;8.50;56.70
12769;DHT22;6448;48.916;8.990;2023-01-31T06:44:24;8.50;56.70
12769;DHT22;6448;48.916;8.990;2023-01-31T06:45:26;8.50;56.70
12769;DHT22;6448;48.916;8.990;2023-01-31T06:46:27;8.50;56.70
12769;DHT22;6448;48.916;8.990;2023-01-31T06:47:29;8.50;56.70
12769;DHT22;6448;48.916;8.990;2023-01-31T06:48:29;8.40;56.70
12769;DHT22;6448;48.916;8.990;2023-01-31T06:49:31;8.50;56.70
12769;DHT22;6448;48.916;8.990;2023-01-31T06:50:35;8.50;56.70
12769;DHT22;6448;48.916;8.990;2023-01-31T06:51:37;8.60;56.80
12769;DHT22;6448;48.916;8.990;2023-01-31T06:52:38;8.60;56.70
12769;DHT22;6448;48.916;8.990;2023-01-31T06:53:40;8.50;56.60
12769;DHT22;6448;48.916;8.990;2023-01-31T06:54:42;8.50;56.70
12769;DHT22;6448;48.916;8.990;2023-01-31T06:55:44;8.50;56.60
12769;DHT22;6448;48.916;8.990;2023-01-31T06:56:45;8.50;56.50
12769;DHT22;6448;48.916;8.990;2023-01-31T06:57:48;8.60;56.60
12769;DHT22;6448;48.916;8.990;2023-01-31T06:58:49;8.50;56.50
12769;DHT22;6448;48.916;8.990;2023-01-31T06:59:51;8.50;56.50
12769;DHT22;6448;48.916;8.990;2023-01-31T07:00:51;8.50;56.50